createdAt,value
2022-12-03T00:01:33.626Z,35.05
2022-12-03T00:04:19.389Z,33.38
2022-12-03T00:07:05.005Z,37.53
2022-12-03T00:09:50.755Z,34.33
2022-12-03T00:12:37.843Z,36.78
2022-12-03T00:15:24.604Z,36.08
2022-12-03T00:18:10.850Z,35.60
2022-12-03T00:20:56.922Z,33.35
2022-12-03T00:23:42.683Z,35.63
2022-12-03T00:26:28.653Z,34.83
2022-12-03T00:29:14.500Z,34.78
2022-12-03T00:32:00.201Z,36.13
2022-12-03T00:34:45.945Z,35.05
2022-12-03T00:37:31.929Z,35.92
2022-12-03T00:40:17.791Z,36.45
2022-12-03T00:43:03.865Z,35.40
2022-12-03T00:45:49.576Z,37.17
2022-12-03T00:48:35.523Z,36.15
2022-12-03T00:51:21.598Z,36.63
2022-12-03T00:54:07.117Z,37.70
2022-12-03T00:56:53.450Z,35.38
2022-12-03T00:59:39.333Z,37.00
2022-12-03T01:02:25.115Z,35.88
2022-12-03T01:05:11.203Z,36.35
2022-12-03T01:07:56.947Z,36.75
2022-12-03T01:10:43.048Z,35.60
2022-12-03T01:13:28.769Z,36.17
2022-12-03T01:16:14.411Z,35.42
2022-12-03T01:19:00.415Z,35.15
2022-12-03T01:21:48.860Z,36.05
2022-12-03T01:24:34.633Z,35.53
2022-12-03T01:27:20.700Z,34.17
2022-12-03T01:30:09.823Z,33.78
2022-12-03T01:32:55.771Z,34.47
2022-12-03T01:35:41.736Z,33.30
2022-12-03T01:38:27.347Z,32.08
2022-12-03T01:41:13.214Z,32.92
2022-12-03T01:43:59.625Z,32.42
2022-12-03T01:46:46.255Z,33.30
2022-12-03T01:50:09.580Z,33.75
2022-12-03T01:52:56.125Z,34.10
2022-12-03T01:55:48.267Z,34.35
2022-12-03T01:58:34.930Z,32.03
2022-12-03T02:01:20.935Z,31.63
2022-12-03T02:04:08.852Z,29.50
2022-12-03T02:06:54.813Z,28.77
2022-12-03T02:09:40.829Z,28.95
2022-12-03T02:12:38.948Z,31.17
2022-12-03T02:15:25.286Z,28.00
2022-12-03T02:18:11.140Z,28.17
2022-12-03T02:21:17.732Z,28.77
2022-12-03T02:24:20.040Z,27.85
2022-12-03T02:27:06.509Z,29.52
2022-12-03T02:30:00.264Z,29.23
2022-12-03T02:32:46.759Z,27.50
2022-12-03T02:35:35.330Z,28.13
2022-12-03T02:38:26.756Z,27.23
2022-12-03T02:41:38.795Z,30.15
2022-12-03T02:44:24.620Z,27.27
2022-12-03T02:47:10.563Z,28.52
2022-12-03T02:49:58.096Z,29.33
2022-12-03T02:52:45.302Z,29.05
2022-12-03T02:55:36.823Z,29.30
2022-12-03T02:58:24.777Z,22.85
2022-12-03T03:01:10.999Z,31.30
2022-12-03T03:03:58.078Z,29.85
2022-12-03T03:06:44.039Z,28.88
2022-12-03T03:09:30.157Z,28.98
2022-12-03T03:12:16.563Z,28.55
2022-12-03T03:15:02.520Z,27.58
2022-12-03T03:17:48.304Z,27.38
2022-12-03T03:20:34.593Z,28.85
2022-12-03T03:23:23.332Z,28.13
2022-12-03T03:26:10.930Z,28.40
2022-12-03T03:29:00.227Z,28.30
2022-12-03T03:31:47.583Z,28.77
2022-12-03T03:34:33.353Z,28.98
2022-12-03T03:37:24.426Z,28.00
2022-12-03T03:40:11.350Z,26.95
2022-12-03T03:43:02.507Z,27.73
2022-12-03T03:45:50.002Z,27.52
2022-12-03T03:48:36.539Z,28.27
2022-12-03T03:51:23.138Z,28.60
2022-12-03T03:54:09.439Z,29.63
2022-12-03T03:56:55.621Z,29.70
2022-12-03T03:59:42.046Z,28.30
2022-12-03T04:02:28.477Z,27.27
2022-12-03T04:05:22.030Z,25.98
2022-12-03T04:08:08.106Z,25.30
2022-12-03T04:11:12.557Z,26.95
2022-12-03T04:13:58.352Z,28.17
2022-12-03T04:16:44.074Z,25.52
2022-12-03T04:19:32.413Z,26.35
2022-12-03T04:22:38.918Z,22.52
2022-12-03T04:25:45.082Z,21.70
2022-12-03T04:28:50.275Z,23.98
2022-12-03T04:31:54.921Z,26.08
2022-12-03T04:34:59.635Z,24.45
2022-12-03T04:38:02.176Z,25.88
2022-12-03T04:41:06.398Z,24.95
2022-12-03T04:44:11.626Z,24.52
2022-12-03T04:46:57.601Z,21.67
2022-12-03T04:49:45.996Z,22.17
2022-12-03T04:52:31.756Z,23.27
2022-12-03T04:55:17.765Z,24.90
2022-12-03T04:58:03.786Z,23.83
2022-12-03T05:00:49.931Z,24.67
2022-12-03T05:03:35.669Z,23.67
2022-12-03T05:06:21.788Z,24.63
2022-12-03T05:09:07.516Z,24.23
2022-12-03T05:11:53.358Z,24.25
2022-12-03T05:14:39.256Z,24.05
2022-12-03T05:17:24.971Z,23.30
2022-12-03T05:20:30.677Z,23.50
2022-12-03T05:23:16.709Z,23.05
2022-12-03T05:26:02.529Z,23.63
2022-12-03T05:28:48.710Z,23.25
2022-12-03T05:31:34.646Z,23.30
2022-12-03T05:34:20.475Z,25.42
2022-12-03T05:37:07.554Z,26.10
2022-12-03T05:39:53.198Z,24.77
2022-12-03T05:43:01.358Z,23.40
2022-12-03T05:45:47.262Z,24.90
2022-12-03T05:48:33.051Z,23.95
2022-12-03T05:51:18.722Z,23.17
2022-12-03T05:54:04.452Z,22.88
2022-12-03T05:56:50.463Z,23.83
2022-12-03T05:59:36.134Z,23.58
2022-12-03T06:02:21.998Z,23.38
2022-12-03T06:05:09.354Z,21.58
2022-12-03T06:07:55.561Z,23.17
2022-12-03T06:10:41.672Z,24.42
2022-12-03T06:13:27.324Z,23.13
2022-12-03T06:16:12.992Z,21.17
2022-12-03T06:18:58.737Z,22.52
2022-12-03T06:21:44.432Z,22.42
2022-12-03T06:24:30.159Z,21.55
2022-12-03T06:27:16.226Z,22.13
2022-12-03T06:30:03.020Z,22.30
2022-12-03T06:32:59.864Z,24.23
2022-12-03T06:35:45.884Z,22.00
2022-12-03T06:38:31.485Z,27.27
2022-12-03T06:41:19.959Z,24.27
2022-12-03T06:44:05.899Z,22.77
2022-12-03T06:46:52.133Z,24.45
2022-12-03T06:49:38.419Z,25.27
2022-12-03T06:52:24.784Z,25.20
2022-12-03T06:55:10.646Z,25.17
2022-12-03T06:57:56.502Z,27.52
2022-12-03T07:00:42.487Z,22.35
2022-12-03T07:03:28.299Z,25.52
2022-12-03T07:06:14.500Z,24.90
2022-12-03T07:09:00.314Z,22.17
2022-12-03T07:11:46.962Z,23.15
2022-12-03T07:14:32.880Z,25.38
2022-12-03T07:17:18.825Z,23.35
2022-12-03T07:20:05.147Z,25.88
2022-12-03T07:22:52.096Z,26.35
2022-12-03T07:25:38.013Z,24.67
2022-12-03T07:28:24.196Z,25.98
2022-12-03T07:31:11.458Z,23.45
2022-12-03T07:33:57.744Z,24.75
2022-12-03T07:36:43.846Z,22.13
2022-12-03T07:39:30.383Z,24.73
2022-12-03T07:42:16.550Z,25.63
2022-12-03T07:45:02.363Z,27.38
2022-12-03T07:47:48.708Z,27.40
2022-12-03T07:50:34.913Z,28.90
2022-12-03T07:53:20.639Z,30.67
2022-12-03T07:56:07.444Z,26.40
2022-12-03T07:58:53.509Z,24.80
2022-12-03T08:01:40.244Z,25.67
2022-12-03T08:04:26.409Z,23.02
2022-12-03T08:07:12.783Z,22.80
2022-12-03T08:09:59.066Z,25.00
2022-12-03T08:12:44.956Z,22.80
2022-12-03T08:15:36.930Z,23.30
2022-12-03T08:18:27.240Z,25.20
2022-12-03T08:21:15.748Z,24.92
2022-12-03T08:24:18.897Z,23.52
2022-12-03T08:27:19.692Z,26.40
2022-12-03T08:30:06.402Z,24.75
2022-12-03T08:32:58.234Z,26.17
2022-12-03T08:35:48.573Z,26.70
2022-12-03T08:38:34.630Z,25.05
2022-12-03T08:41:39.934Z,23.55
2022-12-03T08:44:27.165Z,22.88
2022-12-03T08:47:17.217Z,22.70
2022-12-03T08:50:27.238Z,23.58
2022-12-03T08:53:37.931Z,23.05
2022-12-03T08:56:24.865Z,24.65
2022-12-03T08:59:29.965Z,21.52
2022-12-03T13:50:41.333Z,35.50
2022-12-03T13:53:33.285Z,35.22
2022-12-03T13:56:28.223Z,32.65
2022-12-03T13:59:14.973Z,31.88
2022-12-03T14:02:01.320Z,33.00
2022-12-03T14:04:47.395Z,33.45
2022-12-03T14:07:33.395Z,31.35
2022-12-03T14:10:19.613Z,31.00
2022-12-03T14:13:05.430Z,27.55
2022-12-03T14:15:51.712Z,29.15
2022-12-03T14:18:37.765Z,32.33
2022-12-03T14:21:24.209Z,31.73
2022-12-03T14:24:10.073Z,29.85
2022-12-03T14:26:56.097Z,29.92
2022-12-03T14:29:41.926Z,29.35
2022-12-03T14:32:28.484Z,27.48
2022-12-03T14:35:14.957Z,28.92
2022-12-03T14:38:01.200Z,28.98
2022-12-03T14:40:47.063Z,28.60
2022-12-03T14:43:32.774Z,30.73
2022-12-03T14:46:18.596Z,34.67
2022-12-03T14:49:04.657Z,32.08
2022-12-03T14:51:50.932Z,33.45
2022-12-03T14:54:39.283Z,33.50
2022-12-03T14:57:25.469Z,31.02
2022-12-03T15:00:12.151Z,31.70
2022-12-03T15:02:58.239Z,34.53
2022-12-03T15:05:44.047Z,34.10
2022-12-03T15:08:29.910Z,33.90
2022-12-03T15:11:15.759Z,41.00
2022-12-03T15:14:01.941Z,33.20
2022-12-03T15:16:47.746Z,32.58
2022-12-03T15:19:33.764Z,32.17
2022-12-03T15:22:19.904Z,34.80
2022-12-03T15:25:07.640Z,35.33
2022-12-03T15:27:53.253Z,33.20
2022-12-03T15:30:38.943Z,33.10
2022-12-03T15:33:25.686Z,32.33
2022-12-03T15:36:12.235Z,33.15
2022-12-03T15:38:58.183Z,36.63
2022-12-03T15:41:43.923Z,44.38
2022-12-03T15:44:29.727Z,39.53
2022-12-03T15:47:15.882Z,41.58
2022-12-03T15:50:01.759Z,37.65
2022-12-03T15:52:48.138Z,36.88
2022-12-03T15:55:34.371Z,37.78
2022-12-03T15:58:20.465Z,38.00
2022-12-03T16:01:06.898Z,39.47
2022-12-03T16:03:52.808Z,39.03
2022-12-03T16:06:38.812Z,39.45
2022-12-03T16:09:27.443Z,37.97
2022-12-03T16:12:14.774Z,39.42
2022-12-03T16:15:01.266Z,41.13
2022-12-03T16:17:47.485Z,42.35
2022-12-03T16:20:34.436Z,42.67
2022-12-03T16:23:20.927Z,43.95
2022-12-03T16:26:07.934Z,44.72
2022-12-03T16:28:55.325Z,44.65
2022-12-03T16:31:43.276Z,43.95
2022-12-03T16:34:30.905Z,43.03
2022-12-03T16:37:19.195Z,44.08
2022-12-03T16:40:12.085Z,46.75
2022-12-03T16:43:01.265Z,49.75
2022-12-03T16:46:20.867Z,44.97
2022-12-03T16:49:10.123Z,45.35
2022-12-03T16:51:57.829Z,44.55
2022-12-03T16:54:45.011Z,42.35
2022-12-03T16:57:33.934Z,44.00
2022-12-03T17:00:23.129Z,44.35
2022-12-03T17:03:10.731Z,46.17
2022-12-03T17:05:58.006Z,45.55
2022-12-03T17:08:49.432Z,45.58
2022-12-03T17:11:38.434Z,53.03
2022-12-03T17:14:31.437Z,53.95
2022-12-03T17:17:21.956Z,45.20
2022-12-03T17:20:13.592Z,49.78
2022-12-03T17:23:02.175Z,47.75
2022-12-03T17:25:50.345Z,48.33
2022-12-03T17:28:37.584Z,50.25
2022-12-03T17:31:25.018Z,46.13
2022-12-03T17:34:12.423Z,47.92
2022-12-03T17:37:00.954Z,56.03
2022-12-03T17:39:48.193Z,44.05
2022-12-03T17:42:35.176Z,41.80
2022-12-03T17:45:21.925Z,38.13
2022-12-03T17:48:09.316Z,38.97
2022-12-03T17:50:59.320Z,40.75
2022-12-03T17:53:48.160Z,42.88
2022-12-03T17:56:36.711Z,39.28
2022-12-03T17:59:24.076Z,40.08
2022-12-03T18:02:11.371Z,42.53
2022-12-03T18:04:59.690Z,41.55
2022-12-03T18:07:46.937Z,43.70
2022-12-03T18:10:34.476Z,41.03
2022-12-03T18:13:21.782Z,40.08
2022-12-03T18:16:09.323Z,47.00
2022-12-03T18:18:59.905Z,46.17
2022-12-03T18:21:51.334Z,48.00
2022-12-03T18:24:39.979Z,49.83
2022-12-03T18:27:26.315Z,53.78
2022-12-03T18:30:12.550Z,51.70
2022-12-03T18:32:58.333Z,52.13
2022-12-03T18:35:44.381Z,51.05
2022-12-03T18:38:30.874Z,49.88
2022-12-03T18:41:20.584Z,49.92
2022-12-03T18:44:07.142Z,52.33
2022-12-03T18:46:54.437Z,57.10
2022-12-03T18:49:41.223Z,53.60
2022-12-03T18:52:27.386Z,53.38
2022-12-03T18:55:20.095Z,52.78
2022-12-03T18:58:06.314Z,51.37
2022-12-03T19:00:55.478Z,73.88
2022-12-03T19:03:41.224Z,78.65
2022-12-03T19:06:30.584Z,177.48
2022-12-03T19:09:17.735Z,113.35
2022-12-03T19:12:04.264Z,66.10
2022-12-03T19:14:51.163Z,110.13
2022-12-03T19:17:39.674Z,66.05
2022-12-03T19:20:25.555Z,60.10
2022-12-03T19:23:11.364Z,52.25
2022-12-03T19:25:58.944Z,52.05
2022-12-03T19:28:44.944Z,54.38
2022-12-03T19:31:33.420Z,55.97
2022-12-03T19:34:20.157Z,56.97
2022-12-03T19:37:05.979Z,56.63
2022-12-03T19:39:55.149Z,54.03
2022-12-03T19:42:44.464Z,50.47
2022-12-03T19:45:30.795Z,48.65
2022-12-03T19:48:17.038Z,47.83
2022-12-03T19:51:26.625Z,45.40
2022-12-03T19:54:14.253Z,43.67
2022-12-03T19:57:00.491Z,45.10
2022-12-03T19:59:46.509Z,44.38
2022-12-03T20:02:32.520Z,44.20
2022-12-03T20:05:18.742Z,47.08
2022-12-03T20:08:05.542Z,43.13
2022-12-03T20:10:51.262Z,44.17
2022-12-03T20:13:37.095Z,42.40
2022-12-03T20:16:24.014Z,41.05
2022-12-03T20:19:11.866Z,41.92
2022-12-03T20:22:02.359Z,46.28
2022-12-03T20:24:48.708Z,44.20
2022-12-03T20:27:34.957Z,47.13
2022-12-03T20:30:20.875Z,45.58
2022-12-03T20:33:10.125Z,43.88
2022-12-03T20:35:56.785Z,44.42
2022-12-03T20:38:43.123Z,43.10
2022-12-03T20:41:29.159Z,43.85
2022-12-03T20:44:15.276Z,43.42
2022-12-03T20:47:01.389Z,43.90
2022-12-03T20:49:47.244Z,41.45
2022-12-03T20:52:33.405Z,39.88
2022-12-03T20:55:19.108Z,38.78
2022-12-03T20:58:04.973Z,40.30
2022-12-03T21:00:51.081Z,40.13
2022-12-03T21:03:37.322Z,38.05
2022-12-03T21:06:25.101Z,38.05
2022-12-03T21:09:12.193Z,38.15
2022-12-03T21:11:58.700Z,37.85
2022-12-03T21:14:44.445Z,35.85
2022-12-03T21:17:30.414Z,39.60
2022-12-03T21:20:20.812Z,37.75
2022-12-03T21:23:07.387Z,38.38
2022-12-03T21:25:54.673Z,37.13
2022-12-03T21:28:43.485Z,38.60
2022-12-03T21:31:31.664Z,38.88
2022-12-03T21:34:17.375Z,40.53
2022-12-03T21:37:03.348Z,41.50
2022-12-03T21:39:49.947Z,38.33
2022-12-03T21:42:37.346Z,38.88
2022-12-03T21:45:25.100Z,39.60
2022-12-03T21:48:11.529Z,40.88
2022-12-03T21:51:00.145Z,43.22
2022-12-03T21:53:46.566Z,43.63
2022-12-03T21:56:33.247Z,45.42
2022-12-03T21:59:19.102Z,43.13
2022-12-03T22:02:04.947Z,43.28
2022-12-03T22:04:51.197Z,43.08
2022-12-03T22:07:38.382Z,42.05
2022-12-03T22:10:24.560Z,44.90
2022-12-03T22:13:10.434Z,43.22
2022-12-03T22:15:56.528Z,43.00
2022-12-03T22:18:42.442Z,41.53
2022-12-03T22:21:28.689Z,42.22
2022-12-03T22:24:14.725Z,42.38
2022-12-03T22:27:00.435Z,41.80
2022-12-03T22:29:46.092Z,41.22
2022-12-03T22:32:31.880Z,41.67
2022-12-03T22:35:17.617Z,42.30
2022-12-03T22:38:03.333Z,43.58
2022-12-03T22:40:57.166Z,43.97
2022-12-03T22:43:44.022Z,42.38
2022-12-03T22:46:30.352Z,43.85
2022-12-03T22:49:16.534Z,43.35
2022-12-03T22:52:02.667Z,44.55
2022-12-03T22:54:49.064Z,43.03
2022-12-03T22:57:34.938Z,38.65
2022-12-03T23:00:29.828Z,38.92
2022-12-03T23:03:20.396Z,39.13
2022-12-03T23:06:11.094Z,42.42
2022-12-03T23:08:57.963Z,39.60
2022-12-03T23:11:45.385Z,40.25
2022-12-03T23:14:31.484Z,38.65
2022-12-03T23:17:17.289Z,40.15
2022-12-03T23:20:04.083Z,39.97
2022-12-03T23:22:50.271Z,38.53
2022-12-03T23:25:37.446Z,38.22
2022-12-03T23:28:23.695Z,37.30
2022-12-03T23:31:32.307Z,38.28
2022-12-03T23:34:18.507Z,36.50
2022-12-03T23:37:04.674Z,36.72
2022-12-03T23:39:50.694Z,36.38
2022-12-03T23:42:36.768Z,38.22
2022-12-03T23:45:22.602Z,37.88
2022-12-03T23:48:08.861Z,39.35
2022-12-03T23:50:54.955Z,36.28
2022-12-03T23:53:41.200Z,39.40
2022-12-03T23:56:30.677Z,39.47
2022-12-03T23:59:16.337Z,39.10
